createdAt,value
2022-09-23T00:03:17.889Z,77.79
2022-09-23T00:07:25.425Z,77.81
2022-09-23T00:11:33.282Z,77.46
2022-09-23T00:15:44.205Z,77.64
2022-09-23T00:19:51.569Z,77.95
2022-09-23T00:23:59.195Z,78.16
2022-09-23T00:28:07.190Z,78.25
2022-09-23T00:32:15.080Z,78.09
2022-09-23T00:36:23.182Z,78.02
2022-09-23T00:40:31.185Z,77.83
2022-09-23T00:44:51.499Z,77.64
2022-09-23T00:49:01.854Z,77.54
2022-09-23T00:53:12.103Z,77.53
2022-09-23T00:57:21.161Z,77.49
2022-09-23T01:01:29.385Z,77.67
2022-09-23T01:05:38.851Z,77.86
2022-09-23T01:09:46.671Z,77.92
2022-09-23T01:14:02.103Z,77.46
2022-09-23T01:18:15.716Z,77.75
2022-09-23T01:22:30.152Z,77.76
2022-09-23T01:27:01.017Z,77.47
2022-09-23T01:31:11.087Z,77.83
2022-09-23T01:35:30.568Z,77.79
2022-09-23T01:39:40.492Z,77.95
2022-09-23T01:43:54.674Z,77.93
2022-09-23T01:48:10.454Z,78.27
2022-09-23T01:52:20.184Z,78.06
2022-09-23T01:56:31.122Z,77.93
2022-09-23T02:00:43.190Z,78.12
2022-09-23T02:04:57.458Z,78.31
2022-09-23T02:09:07.867Z,78.44
2022-09-23T02:13:20.855Z,78.31
2022-09-23T02:17:32.407Z,78.03
2022-09-23T02:21:44.501Z,77.90
2022-09-23T02:25:58.370Z,78.12
2022-09-23T02:30:09.996Z,77.97
2022-09-23T02:34:24.934Z,78.06
2022-09-23T02:38:36.615Z,77.91
2022-09-23T02:42:51.151Z,78.29
2022-09-23T02:46:58.977Z,78.11
2022-09-23T02:51:07.890Z,78.11
2022-09-23T02:55:18.832Z,78.28
2022-09-23T02:59:28.028Z,78.40
2022-09-23T03:03:44.212Z,78.19
2022-09-23T03:07:56.904Z,77.83
2022-09-23T03:12:14.695Z,78.25
2022-09-23T03:16:29.940Z,78.14
2022-09-23T03:20:39.734Z,78.03
2022-09-23T03:24:53.166Z,78.32
2022-09-23T03:29:05.017Z,78.50
2022-09-23T03:33:16.981Z,78.42
2022-09-23T03:37:28.132Z,78.85
2022-09-23T03:41:50.964Z,78.78
2022-09-23T03:46:01.875Z,78.54
2022-09-23T03:50:10.835Z,78.44
2022-09-23T03:54:21.018Z,78.51
2022-09-23T03:58:28.443Z,78.26
2022-09-23T04:02:36.334Z,78.03
2022-09-23T04:06:45.165Z,78.72
2022-09-23T04:10:56.780Z,78.46
2022-09-23T04:15:05.557Z,79.01
2022-09-23T04:19:15.001Z,78.61
2022-09-23T04:23:23.115Z,78.64
2022-09-23T04:27:35.552Z,78.59
2022-09-23T04:31:45.462Z,78.19
2022-09-23T04:35:55.010Z,78.30
2022-09-23T04:40:04.038Z,78.41
2022-09-23T04:44:12.492Z,78.12
2022-09-23T04:48:20.831Z,78.45
2022-09-23T04:52:28.826Z,78.48
2022-09-23T04:56:37.067Z,78.36
2022-09-23T05:00:46.691Z,78.45
2022-09-23T05:04:55.715Z,78.83
2022-09-23T05:09:03.716Z,78.86
2022-09-23T05:13:11.328Z,78.98
2022-09-23T05:17:21.434Z,78.83
2022-09-23T05:21:31.680Z,78.83
2022-09-23T05:25:39.568Z,79.22
2022-09-23T05:29:48.104Z,79.14
2022-09-23T05:33:59.055Z,79.97
2022-09-23T05:38:09.015Z,80.41
2022-09-23T05:42:21.246Z,80.58
2022-09-23T05:46:30.729Z,81.00
2022-09-23T05:50:41.237Z,80.73
2022-09-23T05:54:50.195Z,81.12
2022-09-23T05:58:59.039Z,80.89
2022-09-23T06:03:08.037Z,80.57
2022-09-23T06:07:17.345Z,80.73
2022-09-23T06:11:25.291Z,80.73
2022-09-23T06:15:32.849Z,80.65
2022-09-23T06:19:40.332Z,80.56
2022-09-23T06:23:48.470Z,80.72
2022-09-23T06:27:59.546Z,80.77
2022-09-23T06:32:07.358Z,81.01
2022-09-23T06:36:34.092Z,81.17
2022-09-23T06:40:44.486Z,81.06
2022-09-23T06:44:53.004Z,80.92
2022-09-23T06:49:02.292Z,80.98
2022-09-23T06:53:11.104Z,80.66
2022-09-23T06:57:20.929Z,80.56
2022-09-23T07:01:29.967Z,80.69
2022-09-23T07:05:38.759Z,80.12
2022-09-23T07:09:46.178Z,79.96
2022-09-23T07:13:54.237Z,79.53
2022-09-23T07:18:02.343Z,79.02
2022-09-23T07:22:11.907Z,79.22
2022-09-23T07:26:21.340Z,78.55
2022-09-23T07:30:28.811Z,78.52
2022-09-23T07:34:36.649Z,77.81
2022-09-23T07:38:45.885Z,77.21
2022-09-23T07:42:55.593Z,76.66
2022-09-23T07:47:04.294Z,75.78
2022-09-23T07:51:13.786Z,76.07
2022-09-23T07:55:23.416Z,75.85
2022-09-23T07:59:32.070Z,75.67
2022-09-23T08:03:44.171Z,75.28
2022-09-23T08:07:52.121Z,74.71
2022-09-23T08:12:00.195Z,74.19
2022-09-23T08:16:09.610Z,73.78
2022-09-23T08:20:37.088Z,73.01
2022-09-23T08:24:46.773Z,72.74
2022-09-23T08:28:55.942Z,72.28
2022-09-23T08:33:04.956Z,71.99
2022-09-23T08:37:13.995Z,72.29
2022-09-23T08:41:26.889Z,72.50
2022-09-23T08:45:35.372Z,71.92
2022-09-23T08:49:49.964Z,70.91
2022-09-23T08:53:58.627Z,70.17
2022-09-23T08:58:27.203Z,69.60
2022-09-23T09:02:37.737Z,69.16
2022-09-23T09:06:53.871Z,69.00
2022-09-23T09:11:04.852Z,69.13
2022-09-23T09:15:17.184Z,68.66
2022-09-23T09:19:48.148Z,68.29
2022-09-23T09:24:00.548Z,68.36
2022-09-23T09:28:19.190Z,67.35
2022-09-23T09:32:35.309Z,66.75
2022-09-23T09:36:47.795Z,66.09
2022-09-23T09:40:59.847Z,65.88
2022-09-23T09:45:20.051Z,64.85
2022-09-23T09:49:39.555Z,64.38
2022-09-23T09:53:50.401Z,63.81
2022-09-23T09:58:02.082Z,64.62
2022-09-23T10:02:31.036Z,64.61
2022-09-23T10:06:39.211Z,63.15
2022-09-23T10:10:54.952Z,62.52
2022-09-23T10:15:02.727Z,61.58
2022-09-23T10:19:19.292Z,61.63
2022-09-23T10:23:33.577Z,60.19
2022-09-23T10:27:41.227Z,59.54
2022-09-23T10:31:52.988Z,59.12
2022-09-23T10:36:01.485Z,59.18
2022-09-23T10:40:44.457Z,58.98
2022-09-23T10:45:18.789Z,58.00
2022-09-23T10:49:53.537Z,58.96
2022-09-23T10:54:07.540Z,58.53
2022-09-23T10:58:40.449Z,57.84
2022-09-23T11:03:03.888Z,57.90
2022-09-23T11:07:25.991Z,58.02
2022-09-23T11:11:44.880Z,58.87
2022-09-23T11:16:02.927Z,58.77
2022-09-23T11:20:30.981Z,58.24
2022-09-23T11:24:53.240Z,57.88
2022-09-23T11:29:30.471Z,56.34
2022-09-23T11:33:52.947Z,55.87
2022-09-23T11:38:06.637Z,55.42
2022-09-23T11:42:18.468Z,54.79
2022-09-23T11:46:33.868Z,53.65
2022-09-23T11:50:43.932Z,53.53
2022-09-23T11:54:55.056Z,53.02
2022-09-23T11:59:06.150Z,51.96
2022-09-23T12:03:19.558Z,52.22
2022-09-23T12:07:33.491Z,52.41
2022-09-23T12:11:49.304Z,51.62
2022-09-23T12:16:10.312Z,50.73
2022-09-23T12:20:42.505Z,49.50
2022-09-23T12:24:55.836Z,49.97
2022-09-23T12:29:08.318Z,48.95
2022-09-23T12:33:24.920Z,49.49
2022-09-23T12:37:37.448Z,49.38
2022-09-23T12:41:48.894Z,49.38
2022-09-23T12:45:58.146Z,49.09
2022-09-23T12:50:56.959Z,46.86
2022-09-23T12:55:47.281Z,48.85
2022-09-23T13:00:00.267Z,49.59
2022-09-23T13:04:50.250Z,49.23
2022-09-23T13:08:58.178Z,48.45
2022-09-23T13:13:06.870Z,48.32
2022-09-23T13:17:26.507Z,47.59
2022-09-23T13:22:08.033Z,47.19
2022-09-23T13:26:18.999Z,46.54
2022-09-23T13:30:27.745Z,46.26
2022-09-23T13:34:38.787Z,46.59
2022-09-23T13:38:47.233Z,46.58
2022-09-23T13:42:59.869Z,46.21
2022-09-23T13:47:09.178Z,45.49
2022-09-23T13:51:23.147Z,45.65
2022-09-23T13:55:33.718Z,45.53
2022-09-23T13:59:44.353Z,44.97
2022-09-23T14:03:52.702Z,44.27
2022-09-23T14:08:00.875Z,44.83
2022-09-23T14:12:10.416Z,45.21
2022-09-23T14:16:19.879Z,44.96
2022-09-23T14:20:27.617Z,45.58
2022-09-23T14:24:39.572Z,44.75
2022-09-23T14:28:49.609Z,44.81
2022-09-23T14:32:57.802Z,44.78
2022-09-23T14:37:47.542Z,44.89
2022-09-23T14:41:56.057Z,45.38
2022-09-23T14:46:03.882Z,46.75
2022-09-23T14:50:36.296Z,45.98
2022-09-23T14:54:49.362Z,45.84
2022-09-23T14:58:59.461Z,45.97
2022-09-23T15:03:16.052Z,46.19
2022-09-23T15:07:24.215Z,46.43
2022-09-23T15:11:34.972Z,47.46
2022-09-23T15:15:43.846Z,48.50
2022-09-23T15:19:56.808Z,50.78
2022-09-23T15:24:05.573Z,52.06
2022-09-23T15:28:24.042Z,53.65
2022-09-23T15:32:32.619Z,56.18
2022-09-23T15:36:40.183Z,57.35
2022-09-23T15:40:47.681Z,58.21
2022-09-23T15:44:55.939Z,58.89
2022-09-23T15:49:08.025Z,59.45
2022-09-23T15:53:19.634Z,60.16
2022-09-23T15:57:27.964Z,60.28
2022-09-23T16:01:39.971Z,61.21
2022-09-23T16:05:49.142Z,61.78
2022-09-23T16:09:58.826Z,62.35
2022-09-23T16:14:08.116Z,62.65
2022-09-23T16:18:15.796Z,62.24
2022-09-23T16:22:27.964Z,63.08
2022-09-23T16:26:36.869Z,63.47
2022-09-23T16:30:44.408Z,63.59
2022-09-23T16:34:52.179Z,63.75
2022-09-23T16:39:00.981Z,63.44
2022-09-23T16:43:09.075Z,63.76
2022-09-23T16:47:18.694Z,64.35
2022-09-23T16:51:29.559Z,64.82
2022-09-23T16:55:38.216Z,65.05
2022-09-23T17:00:03.267Z,64.90
2022-09-23T17:04:16.630Z,65.13
2022-09-23T17:08:24.526Z,65.39
2022-09-23T17:12:35.499Z,65.30
2022-09-23T17:16:43.739Z,65.56
2022-09-23T17:21:02.019Z,65.74
2022-09-23T17:25:10.873Z,66.03
2022-09-23T17:29:18.888Z,66.55
2022-09-23T17:33:26.649Z,66.64
2022-09-23T17:37:34.936Z,66.40
2022-09-23T17:41:44.057Z,66.54
2022-09-23T17:45:51.917Z,66.25
2022-09-23T17:49:59.358Z,67.49
2022-09-23T17:54:08.217Z,68.00
2022-09-23T17:58:15.586Z,68.08
2022-09-23T18:02:23.474Z,68.39
2022-09-23T18:06:32.909Z,68.41
2022-09-23T18:10:40.757Z,68.27
2022-09-23T18:14:49.694Z,68.43
2022-09-23T18:18:58.409Z,68.76
2022-09-23T18:23:06.887Z,69.02
2022-09-23T18:27:14.872Z,69.30
2022-09-23T18:31:22.958Z,69.69
2022-09-23T18:35:31.107Z,69.74
2022-09-23T18:39:38.922Z,69.70
2022-09-23T18:43:48.719Z,69.69
2022-09-23T18:48:13.565Z,70.07
2022-09-23T18:52:21.666Z,70.23
2022-09-23T18:56:33.546Z,70.00
2022-09-23T19:00:42.895Z,70.39
2022-09-23T19:04:52.812Z,70.53
2022-09-23T19:09:00.866Z,71.07
2022-09-23T19:13:08.734Z,71.11
2022-09-23T19:17:16.559Z,71.18
2022-09-23T19:21:25.742Z,71.11
2022-09-23T19:25:34.404Z,71.31
2022-09-23T19:29:42.290Z,71.06
2022-09-23T19:33:57.070Z,71.39
2022-09-23T19:38:05.656Z,71.25
2022-09-23T19:42:13.836Z,71.13
2022-09-23T19:46:24.010Z,71.44
2022-09-23T19:50:34.938Z,71.55
2022-09-23T19:54:42.885Z,72.05
2022-09-23T19:58:52.414Z,71.73
2022-09-23T20:03:00.447Z,72.16
2022-09-23T20:07:09.317Z,72.29
2022-09-23T20:11:18.411Z,72.55
2022-09-23T20:15:26.589Z,72.49
2022-09-23T20:19:35.219Z,72.88
2022-09-23T20:23:43.484Z,73.32
2022-09-23T20:27:53.888Z,73.84
2022-09-23T20:32:01.885Z,73.70
2022-09-23T20:36:10.585Z,73.15
2022-09-23T20:40:23.327Z,73.59
2022-09-23T20:44:31.365Z,73.88
2022-09-23T20:48:41.598Z,74.01
2022-09-23T20:52:50.991Z,74.19
2022-09-23T20:56:59.029Z,74.09
2022-09-23T21:01:10.732Z,74.00
2022-09-23T21:05:18.890Z,73.82
2022-09-23T21:09:27.319Z,73.82
2022-09-23T21:13:35.892Z,73.60
2022-09-23T21:17:43.750Z,73.66
2022-09-23T21:21:52.088Z,73.65
2022-09-23T21:26:06.488Z,73.85
2022-09-23T21:30:15.750Z,73.84
2022-09-23T21:34:26.245Z,74.24
2022-09-23T21:38:33.778Z,73.92
2022-09-23T21:42:42.241Z,74.71
2022-09-23T21:46:50.622Z,75.61
2022-09-23T21:51:00.527Z,75.51
2022-09-23T21:55:09.374Z,75.54
2022-09-23T21:59:17.749Z,75.83
2022-09-23T22:03:25.492Z,75.84
2022-09-23T22:07:33.719Z,75.97
2022-09-23T22:11:59.758Z,76.18
2022-09-23T22:16:08.001Z,76.15
2022-09-23T22:20:17.566Z,76.29
2022-09-23T22:24:28.158Z,76.29
2022-09-23T22:28:54.919Z,76.19
2022-09-23T22:33:07.313Z,75.94
2022-09-23T22:37:17.668Z,76.35
2022-09-23T22:41:26.857Z,76.35
2022-09-23T22:45:38.404Z,76.38
2022-09-23T22:49:46.329Z,76.16
2022-09-23T22:53:55.287Z,76.70
2022-09-23T22:58:27.540Z,76.64
2022-09-23T23:02:32.743Z,76.38
2022-09-23T23:06:41.588Z,76.62
2022-09-23T23:10:50.311Z,76.80
2022-09-23T23:14:58.506Z,76.92
2022-09-23T23:19:09.935Z,77.35
2022-09-23T23:23:17.449Z,77.49
2022-09-23T23:27:26.429Z,77.55
2022-09-23T23:31:34.938Z,77.51
2022-09-23T23:35:42.498Z,77.23
2022-09-23T23:39:51.711Z,77.65
2022-09-23T23:44:01.509Z,77.40
2022-09-23T23:48:11.759Z,77.74
2022-09-23T23:52:19.520Z,77.79
2022-09-23T23:56:27.926Z,77.66
